createdAt,value
2019-04-22T00:01:32.603Z,102.72
2019-04-22T00:04:07.013Z,88.25
2019-04-22T00:06:50.292Z,83.67
2019-04-22T00:09:24.174Z,77.55
2019-04-22T00:12:01.867Z,64.13
2019-04-22T00:14:24.534Z,54.08
2019-04-22T00:16:58.601Z,39.63
2019-04-22T00:19:33.876Z,39.42
2019-04-22T00:22:02.826Z,33.70
2019-04-22T00:24:23.993Z,39.05
2019-04-22T00:26:59.581Z,31.45
2019-04-22T00:32:05.265Z,45.38
2019-04-22T00:34:40.878Z,37.78
2019-04-22T00:37:11.294Z,52.15
2019-04-22T00:39:40.899Z,88.33
2019-04-22T00:42:14.951Z,90.17
2019-04-22T00:44:45.207Z,86.42
2019-04-22T00:47:21.836Z,93.62
2019-04-22T00:54:48.968Z,90.57
2019-04-22T00:57:15.385Z,67.83
2019-04-22T00:59:50.960Z,68.25
2019-04-22T01:02:13.113Z,81.08
2019-04-22T01:04:48.888Z,74.35
2019-04-22T01:07:12.876Z,77.40
2019-04-22T01:09:46.423Z,69.23
2019-04-22T01:12:24.185Z,69.65
2019-04-22T01:14:47.768Z,67.60
2019-04-22T01:17:17.538Z,72.37
2019-04-22T01:19:52.607Z,63.70
2019-04-22T01:22:17.594Z,65.00
2019-04-22T01:24:46.719Z,76.33
2019-04-22T01:27:13.010Z,82.70
2019-04-22T01:29:42.335Z,80.77
2019-04-22T01:32:00.294Z,77.10
2019-04-22T01:34:48.820Z,68.55
2019-04-22T01:37:21.705Z,63.33
2019-04-22T01:39:59.014Z,73.70
2019-04-22T01:42:30.876Z,65.00
2019-04-22T01:44:53.357Z,67.65
2019-04-22T01:47:33.796Z,60.13
2019-04-22T01:50:03.903Z,55.63
2019-04-22T01:52:20.250Z,46.10
2019-04-22T01:54:55.221Z,43.60
2019-04-22T01:57:23.572Z,42.30
2019-04-22T01:59:53.489Z,41.90
2019-04-22T02:02:31.073Z,36.33
2019-04-22T02:05:01.255Z,36.17
2019-04-22T02:07:32.360Z,37.37
2019-04-22T02:10:04.017Z,33.23
2019-04-22T02:12:33.725Z,34.43
2019-04-22T02:14:58.103Z,34.63
2019-04-22T02:20:07.457Z,33.48
2019-04-22T02:22:50.823Z,34.15
2019-04-22T02:25:13.492Z,33.65
2019-04-22T02:27:43.190Z,29.82
2019-04-22T02:30:05.458Z,28.60
2019-04-22T02:32:49.146Z,32.08
2019-04-22T02:35:11.084Z,36.33
2019-04-22T02:37:35.331Z,34.45
2019-04-22T02:40:38.058Z,31.33
2019-04-22T02:42:35.136Z,34.03
2019-04-22T02:45:07.288Z,31.02
2019-04-22T02:47:36.469Z,34.53
2019-04-22T02:52:43.669Z,29.87
2019-04-22T02:55:20.955Z,35.98
2019-04-22T02:57:39.906Z,37.20
2019-04-22T03:02:50.588Z,33.73
2019-04-22T03:05:19.406Z,39.10
2019-04-22T03:07:50.664Z,44.42
2019-04-22T03:10:38.565Z,44.98
2019-04-22T03:15:17.241Z,51.07
2019-04-22T03:17:43.738Z,53.85
2019-04-22T03:20:09.216Z,54.15
2019-04-22T03:22:47.011Z,54.08
2019-04-22T03:27:42.737Z,57.27
2019-04-22T03:30:41.678Z,45.00
2019-04-22T03:47:53.754Z,35.75
2019-04-22T03:52:56.138Z,36.90
2019-04-22T03:57:50.005Z,38.40
2019-04-22T04:00:32.585Z,37.33
2019-04-22T04:02:56.030Z,40.48
2019-04-22T04:05:33.997Z,38.77
2019-04-22T04:07:57.783Z,42.83
2019-04-22T04:10:30.132Z,41.98
2019-04-22T04:15:32.790Z,49.33
2019-04-22T04:17:51.908Z,44.42
2019-04-22T04:20:37.291Z,46.42
2019-04-22T04:22:59.254Z,42.45
2019-04-22T04:25:32.112Z,47.00
2019-04-22T04:30:30.300Z,44.97
2019-04-22T04:37:55.733Z,39.42
2019-04-22T04:40:28.904Z,41.18
2019-04-22T04:42:56.638Z,41.92
2019-04-22T04:47:55.306Z,35.90
2019-04-22T04:58:09.041Z,37.70
2019-04-22T05:07:56.046Z,38.67
2019-04-22T05:10:53.707Z,37.80
2019-04-22T05:12:57.189Z,39.93
2019-04-22T05:15:27.337Z,40.78
2019-04-22T05:17:58.086Z,37.73
2019-04-22T05:20:33.862Z,42.62
2019-04-22T05:22:50.951Z,38.30
2019-04-22T05:25:25.458Z,44.10
2019-04-22T05:28:08.747Z,42.45
2019-04-22T05:35:26.578Z,45.77
2019-04-22T05:37:58.097Z,41.35
2019-04-22T05:40:24.435Z,38.95
2019-04-22T05:42:56.584Z,40.28
2019-04-22T05:50:36.759Z,42.00
2019-04-22T05:52:57.321Z,42.00
2019-04-22T05:55:30.524Z,43.43
2019-04-22T05:57:57.803Z,40.73
2019-04-22T06:05:32.921Z,50.00
2019-04-22T06:08:02.342Z,48.33
2019-04-22T06:13:00.873Z,38.23
2019-04-22T06:15:36.400Z,40.38
2019-04-22T06:20:38.637Z,42.27
2019-04-22T06:23:12.134Z,39.60
2019-04-22T06:26:14.809Z,40.15
2019-04-22T06:28:16.113Z,40.43
2019-04-22T06:30:43.501Z,36.88
2019-04-22T06:35:44.325Z,45.45
2019-04-22T06:38:28.605Z,43.27
2019-04-22T06:40:46.547Z,42.55
2019-04-22T06:43:17.625Z,43.28
2019-04-22T06:45:40.182Z,40.17
2019-04-22T06:50:41.655Z,43.83
2019-04-22T06:53:09.283Z,36.00
2019-04-22T06:55:47.019Z,36.73
2019-04-22T06:58:16.412Z,37.75
2019-04-22T07:05:48.910Z,34.13
2019-04-22T07:08:39.335Z,36.65
2019-04-22T07:10:50.324Z,36.93
2019-04-22T07:13:18.651Z,36.50
2019-04-22T07:20:53.730Z,35.47
2019-04-22T07:23:25.776Z,33.33
2019-04-22T07:25:45.478Z,32.55
2019-04-22T07:28:18.506Z,32.43
2019-04-22T07:30:44.723Z,30.23
2019-04-22T07:33:22.908Z,32.08
2019-04-22T07:38:25.723Z,33.02
2019-04-22T07:40:50.577Z,34.48
2019-04-22T07:43:32.503Z,31.43
2019-04-22T07:45:48.940Z,29.10
2019-04-22T07:48:35.690Z,33.55
2019-04-22T07:50:55.785Z,33.23
2019-04-22T07:53:19.591Z,34.67
2019-04-22T07:55:54.958Z,32.83
2019-04-22T07:58:27.399Z,31.80
2019-04-22T08:00:57.670Z,37.60
2019-04-22T08:03:30.839Z,34.50
2019-04-22T08:06:05.360Z,38.88
2019-04-22T08:08:29.252Z,31.37
2019-04-22T08:10:57.913Z,34.45
2019-04-22T08:13:31.302Z,34.83
2019-04-22T08:15:58.214Z,31.70
2019-04-22T08:18:28.996Z,29.77
2019-04-22T08:20:58.686Z,32.15
2019-04-22T08:23:33.596Z,31.43
2019-04-22T08:25:55.812Z,31.17
2019-04-22T08:28:34.474Z,27.50
2019-04-22T08:31:04.755Z,32.15
2019-04-22T08:38:35.432Z,29.10
2019-04-22T08:43:57.335Z,30.43
2019-04-22T08:46:28.538Z,40.55
2019-04-22T08:53:59.767Z,27.58
2019-04-22T08:56:31.013Z,28.77
2019-04-22T08:58:57.001Z,29.67
2019-04-22T09:01:23.879Z,29.00
2019-04-22T09:03:52.475Z,32.25
2019-04-22T09:06:29.905Z,38.67
2019-04-22T09:08:55.320Z,29.75
2019-04-22T09:11:27.177Z,30.97
2019-04-22T09:13:56.096Z,31.25
2019-04-22T09:16:27.913Z,35.07
2019-04-22T09:18:56.165Z,45.33
2019-04-22T09:21:38.887Z,32.55
2019-04-22T09:23:58.684Z,34.00
2019-04-22T09:26:30.727Z,27.40
2019-04-22T09:29:02.839Z,27.37
2019-04-22T09:31:24.232Z,24.47
2019-04-22T09:33:53.362Z,29.12
2019-04-22T09:36:29.573Z,26.95
2019-04-22T09:38:52.819Z,22.90
2019-04-22T09:41:27.760Z,26.05
2019-04-22T09:43:56.621Z,24.02
2019-04-22T09:46:33.091Z,22.52
2019-04-22T09:51:27.339Z,21.48
2019-04-22T09:56:32.183Z,25.17
2019-04-22T09:58:58.891Z,25.57
2019-04-22T10:01:42.196Z,24.95
2019-04-22T10:04:03.443Z,23.70
2019-04-22T10:11:34.054Z,27.22
2019-04-22T10:19:04.708Z,178.10
2019-04-22T10:21:40.279Z,59.03
2019-04-22T10:24:03.293Z,42.45
2019-04-22T10:29:05.933Z,37.23
2019-04-22T10:31:39.540Z,84.03
2019-04-22T10:33:53.710Z,39.33
2019-04-22T10:36:09.853Z,30.52
2019-04-22T10:38:38.372Z,27.45
2019-04-22T10:41:08.276Z,28.38
2019-04-22T10:43:37.148Z,26.73
2019-04-22T10:46:06.217Z,29.10
2019-04-22T10:48:34.937Z,30.70
2019-04-22T10:51:04.578Z,27.13
2019-04-22T10:53:33.495Z,25.10
2019-04-22T10:56:03.226Z,25.95
2019-04-22T10:58:32.908Z,22.48
2019-04-22T11:01:01.585Z,32.20
2019-04-22T11:03:31.138Z,26.17
2019-04-22T11:06:01.263Z,27.67
2019-04-22T11:08:40.254Z,27.85
2019-04-22T11:11:16.168Z,27.00
2019-04-22T11:13:33.624Z,20.77
2019-04-22T11:16:03.485Z,23.47
2019-04-22T11:18:33.637Z,24.17
2019-04-22T11:21:02.484Z,19.07
2019-04-22T11:23:32.277Z,19.73
2019-04-22T11:26:01.817Z,20.68
2019-04-22T11:28:31.847Z,13.88
2019-04-22T11:31:00.839Z,16.27
2019-04-22T11:33:30.347Z,10.28
2019-04-22T11:35:59.966Z,13.03
2019-04-22T11:38:28.821Z,23.05
2019-04-22T11:40:58.170Z,14.68
2019-04-22T11:43:30.466Z,8.93
2019-04-22T11:45:59.574Z,20.17
2019-04-22T11:48:29.379Z,19.23
2019-04-22T11:50:57.927Z,10.20
2019-04-22T11:53:27.310Z,10.48
2019-04-22T11:55:55.966Z,16.30
2019-04-22T11:58:24.688Z,12.25
2019-04-22T12:00:55.170Z,8.80
2019-04-22T12:03:25.151Z,9.60
2019-04-22T12:05:55.576Z,10.25
2019-04-22T12:08:25.032Z,16.23
2019-04-22T12:10:58.153Z,11.78
2019-04-22T12:13:24.215Z,10.75
2019-04-22T12:15:53.413Z,9.20
2019-04-22T12:18:22.898Z,11.38
2019-04-22T12:20:52.982Z,9.08
2019-04-22T12:23:22.918Z,10.33
2019-04-22T12:25:58.043Z,9.80
2019-04-22T12:28:23.235Z,8.97
2019-04-22T12:30:53.337Z,7.55
2019-04-22T12:33:23.512Z,7.50
2019-04-22T12:35:52.806Z,8.75
2019-04-22T12:38:22.098Z,7.67
2019-04-22T12:40:56.423Z,7.40
2019-04-22T12:43:23.711Z,8.43
2019-04-22T12:45:52.114Z,11.57
2019-04-22T12:48:21.349Z,7.78
2019-04-22T12:50:52.238Z,7.08
2019-04-22T12:53:22.574Z,8.60
2019-04-22T12:55:50.576Z,9.33
2019-04-22T12:58:20.674Z,7.72
2019-04-22T13:00:52.776Z,7.97
2019-04-22T13:03:22.318Z,6.72
2019-04-22T13:05:51.468Z,8.60
2019-04-22T13:08:20.150Z,9.23
2019-04-22T13:10:55.453Z,10.43
2019-04-22T13:13:19.009Z,10.05
2019-04-22T13:15:48.947Z,8.75
2019-04-22T13:18:27.691Z,10.48
2019-04-22T13:20:48.628Z,10.03
2019-04-22T13:23:18.024Z,6.33
2019-04-22T13:25:47.232Z,7.55
2019-04-22T13:28:15.819Z,8.90
2019-04-22T13:30:44.450Z,14.33
2019-04-22T13:33:12.927Z,6.90
2019-04-22T13:35:41.666Z,7.15
2019-04-22T13:38:11.082Z,11.48
2019-04-22T13:40:55.857Z,10.15
2019-04-22T13:43:13.228Z,7.78
2019-04-22T13:45:41.926Z,5.85
2019-04-22T13:48:28.804Z,4.97
2019-04-22T13:51:13.237Z,9.08
2019-04-22T13:53:46.166Z,5.53
2019-04-22T13:56:03.543Z,6.93
2019-04-22T13:58:29.076Z,7.00
2019-04-22T14:00:44.612Z,7.67
2019-04-22T14:03:24.623Z,5.62
2019-04-22T14:05:55.190Z,8.15
2019-04-22T14:08:24.950Z,4.20
2019-04-22T14:10:54.416Z,7.20
2019-04-22T14:13:23.866Z,4.67
2019-04-22T14:15:52.949Z,11.05
2019-04-22T14:18:23.119Z,5.45
2019-04-22T14:20:51.781Z,5.78
2019-04-22T14:23:20.529Z,8.30
2019-04-22T14:25:50.824Z,11.57
2019-04-22T14:28:22.906Z,14.07
2019-04-22T14:30:50.614Z,8.93
2019-04-22T14:33:20.255Z,13.35
2019-04-22T14:35:49.970Z,9.70
2019-04-22T14:38:18.507Z,6.72
2019-04-22T14:40:48.250Z,8.70
2019-04-22T14:43:44.879Z,5.67
2019-04-22T14:46:15.460Z,7.12
2019-04-22T14:48:46.023Z,10.38
2019-04-22T14:51:08.435Z,7.10
2019-04-22T14:53:43.389Z,5.78
2019-04-22T14:55:50.484Z,6.45
2019-04-22T14:58:19.250Z,5.55
2019-04-22T15:00:51.941Z,8.75
2019-04-22T15:03:21.752Z,5.37
2019-04-22T15:05:50.523Z,10.63
2019-04-22T15:08:19.224Z,16.62
2019-04-22T15:10:49.998Z,20.62
2019-04-22T15:13:18.511Z,12.27
2019-04-22T15:16:03.100Z,5.15
2019-04-22T15:18:35.779Z,8.03
2019-04-22T15:21:12.497Z,13.98
2019-04-22T15:23:42.602Z,6.85
2019-04-22T15:26:12.486Z,5.90
2019-04-22T15:28:41.773Z,6.62
2019-04-22T15:31:11.180Z,7.35
2019-04-22T15:33:39.745Z,7.72
2019-04-22T15:36:10.135Z,12.82
2019-04-22T15:38:38.675Z,7.35
2019-04-22T15:41:07.279Z,7.55
2019-04-22T15:43:37.176Z,7.40
2019-04-22T15:46:05.858Z,5.83
2019-04-22T15:48:35.974Z,7.60
2019-04-22T15:51:06.688Z,8.08
2019-04-22T15:53:35.791Z,10.05
2019-04-22T15:56:05.092Z,8.08
2019-04-22T15:58:33.644Z,13.22
2019-04-22T16:01:10.756Z,23.30
2019-04-22T16:03:32.477Z,10.65
2019-04-22T16:06:02.140Z,13.98
2019-04-22T16:08:33.570Z,12.30
2019-04-22T16:11:02.024Z,7.67
2019-04-22T16:13:33.941Z,9.25
2019-04-22T16:16:00.861Z,11.20
2019-04-22T16:18:30.598Z,9.80
2019-04-22T16:21:00.230Z,8.95
2019-04-22T16:23:36.599Z,7.20
2019-04-22T16:26:07.575Z,11.10
2019-04-22T16:28:37.630Z,9.13
2019-04-22T16:31:07.205Z,9.33
2019-04-22T16:33:39.713Z,7.47
2019-04-22T16:36:07.127Z,6.47
2019-04-22T16:38:37.318Z,9.48
2019-04-22T16:41:06.620Z,7.53
2019-04-22T16:43:36.489Z,22.73
2019-04-22T16:46:05.806Z,30.57
2019-04-22T16:48:35.750Z,14.75
2019-04-22T16:51:06.285Z,12.07
2019-04-22T16:53:35.143Z,12.33
2019-04-22T16:56:05.056Z,13.58
2019-04-22T16:58:34.726Z,11.28
2019-04-22T17:01:05.166Z,11.33
2019-04-22T17:03:36.558Z,10.28
2019-04-22T17:06:10.016Z,12.65
2019-04-22T17:08:39.105Z,11.65
2019-04-22T17:11:07.657Z,10.60
2019-04-22T17:13:38.065Z,9.58
2019-04-22T17:16:07.134Z,10.25
2019-04-22T17:18:37.095Z,10.82
2019-04-22T17:21:08.459Z,9.20
2019-04-22T17:23:37.903Z,11.65
2019-04-22T17:26:08.280Z,10.55
2019-04-22T17:28:37.453Z,12.80
2019-04-22T17:31:06.696Z,13.50
2019-04-22T17:33:35.336Z,13.40
2019-04-22T17:36:05.392Z,13.22
2019-04-22T17:38:45.505Z,12.85
2019-04-22T17:41:18.711Z,10.05
2019-04-22T17:43:59.069Z,14.00
2019-04-22T17:46:27.271Z,17.95
2019-04-22T17:49:04.296Z,13.13
2019-04-22T17:51:53.507Z,14.30
2019-04-22T17:54:19.181Z,19.12
2019-04-22T17:56:40.018Z,22.93
2019-04-22T17:59:03.940Z,21.07
2019-04-22T18:01:35.587Z,16.77
2019-04-22T18:03:51.583Z,14.95
2019-04-22T18:06:45.221Z,16.62
2019-04-22T18:09:05.094Z,17.75
2019-04-22T18:11:48.303Z,18.95
2019-04-22T18:14:26.116Z,17.42
2019-04-22T18:16:37.235Z,14.78
2019-04-22T18:19:10.087Z,20.15
2019-04-22T18:21:35.051Z,33.83
2019-04-22T18:23:55.470Z,29.27
2019-04-22T18:26:35.744Z,20.07
2019-04-22T18:29:07.513Z,18.48
2019-04-22T18:31:32.979Z,15.00
2019-04-22T18:34:04.751Z,15.23
2019-04-22T18:36:37.632Z,16.07
2019-04-22T18:39:21.305Z,18.77
2019-04-22T18:41:40.597Z,16.20
2019-04-22T18:44:17.982Z,14.38
2019-04-22T18:46:42.615Z,19.27
2019-04-22T18:49:12.387Z,18.27
2019-04-22T18:51:46.242Z,18.02
2019-04-22T18:54:28.851Z,17.85
2019-04-22T18:56:50.774Z,16.77
2019-04-22T18:59:12.371Z,16.40
2019-04-22T19:01:33.726Z,15.43
2019-04-22T19:04:12.630Z,16.60
2019-04-22T19:06:56.488Z,12.70
2019-04-22T19:09:31.656Z,19.00
2019-04-22T19:14:24.285Z,15.60
2019-04-22T19:17:07.909Z,14.33
2019-04-22T19:19:43.254Z,11.90
2019-04-22T19:21:57.732Z,17.02
2019-04-22T19:24:22.837Z,17.15
2019-04-22T19:26:58.755Z,19.67
2019-04-22T19:29:31.683Z,18.17
2019-04-22T19:31:57.056Z,25.83
2019-04-22T19:34:25.083Z,18.90
2019-04-22T19:36:56.246Z,22.05
2019-04-22T19:39:25.047Z,17.90
2019-04-22T19:42:01.896Z,23.55
2019-04-22T19:44:30.863Z,21.82
2019-04-22T19:47:21.190Z,19.07
2019-04-22T19:49:38.387Z,20.30
2019-04-22T19:54:32.350Z,22.37
2019-04-22T19:56:57.422Z,24.47
2019-04-22T19:59:32.289Z,20.05
2019-04-22T20:02:22.210Z,21.33
2019-04-22T20:05:11.027Z,18.02
2019-04-22T20:07:38.536Z,16.85
2019-04-22T20:10:17.256Z,17.40
2019-04-22T20:12:46.747Z,18.50
2019-04-22T20:15:09.980Z,17.87
2019-04-22T20:17:57.335Z,16.90
2019-04-22T20:20:17.880Z,19.05
2019-04-22T20:22:44.479Z,18.25
2019-04-22T20:25:06.543Z,16.50
2019-04-22T20:27:47.539Z,17.03
2019-04-22T20:30:17.368Z,21.15
2019-04-22T20:32:41.373Z,15.97
2019-04-22T20:35:24.512Z,16.17
2019-04-22T20:37:54.969Z,17.73
2019-04-22T20:40:18.043Z,16.63
2019-04-22T20:42:55.281Z,14.10
2019-04-22T20:45:29.175Z,14.78
2019-04-22T20:47:42.603Z,15.78
2019-04-22T20:50:21.802Z,16.57
2019-04-22T20:52:55.575Z,16.70
2019-04-22T20:55:17.659Z,18.32
2019-04-22T20:57:53.581Z,16.02
2019-04-22T21:00:15.180Z,14.65
2019-04-22T21:02:45.490Z,14.35
2019-04-22T21:05:18.008Z,15.70
2019-04-22T21:07:47.947Z,27.57
2019-04-22T21:10:19.875Z,18.55
2019-04-22T21:12:41.780Z,26.25
2019-04-22T21:15:26.423Z,25.43
2019-04-22T21:17:54.444Z,19.02
2019-04-22T21:20:28.651Z,22.32
2019-04-22T21:22:51.147Z,22.87
2019-04-22T21:25:16.788Z,20.27
2019-04-22T21:27:56.535Z,17.73
2019-04-22T21:30:26.472Z,19.25
2019-04-22T21:32:54.845Z,16.65
2019-04-22T21:35:40.426Z,15.20
2019-04-22T21:38:02.654Z,12.33
2019-04-22T21:40:30.487Z,13.38
2019-04-22T21:42:59.742Z,7.73
2019-04-22T21:45:23.783Z,11.34
2019-04-22T21:48:13.773Z,14.25
2019-04-22T21:50:41.566Z,15.98
2019-04-22T21:53:12.796Z,14.77
2019-04-22T21:55:37.395Z,14.15
2019-04-22T21:58:27.922Z,13.03
2019-04-22T22:03:18.949Z,12.95
2019-04-22T22:05:39.775Z,11.13
2019-04-22T22:08:22.910Z,15.18
2019-04-22T22:10:45.279Z,10.88
2019-04-22T22:13:16.941Z,13.60
2019-04-22T22:15:49.283Z,16.10
2019-04-22T22:18:12.926Z,12.28
2019-04-22T22:20:59.827Z,13.25
2019-04-22T22:23:26.946Z,12.18
2019-04-22T22:25:43.753Z,13.13
2019-04-22T22:28:33.181Z,16.73
2019-04-22T22:31:08.862Z,13.58
2019-04-22T22:33:16.734Z,13.70
2019-04-22T22:35:45.732Z,15.38
2019-04-22T22:38:19.166Z,13.72
2019-04-22T22:40:32.832Z,14.50
2019-04-22T22:43:05.412Z,14.15
2019-04-22T22:45:37.004Z,9.38
2019-04-22T22:48:39.792Z,15.70
2019-04-22T22:50:48.923Z,11.28
2019-04-22T22:53:29.089Z,15.13
2019-04-22T22:55:53.179Z,12.73
2019-04-22T22:58:24.567Z,12.40
2019-04-22T23:00:44.076Z,11.63
2019-04-22T23:03:41.758Z,12.65
2019-04-22T23:06:00.533Z,11.70
2019-04-22T23:08:25.755Z,12.10
2019-04-22T23:11:00.792Z,12.20
2019-04-22T23:13:28.187Z,14.73
2019-04-22T23:15:46.658Z,10.72
2019-04-22T23:18:03.795Z,11.45
2019-04-22T23:20:37.590Z,11.35
2019-04-22T23:23:22.444Z,14.40
2019-04-22T23:26:03.835Z,13.17
2019-04-22T23:28:28.071Z,14.73
2019-04-22T23:31:09.593Z,13.98
2019-04-22T23:33:47.629Z,12.13
2019-04-22T23:36:19.161Z,12.20
2019-04-22T23:39:02.359Z,11.20
2019-04-22T23:46:41.512Z,11.20
2019-04-22T23:49:11.686Z,13.93
2019-04-22T23:51:55.491Z,10.33
2019-04-22T23:54:24.567Z,11.97
2019-04-22T23:56:49.435Z,11.63
